sensor_id;sensor_type;location;lat;lon;timestamp;temperature;humidity
45715;DHT22;31430;61.646;24.704;2023-04-23T00:00:14;-0.90;99.90
45715;DHT22;31430;61.646;24.704;2023-04-23T00:02:43;-0.90;99.90
45715;DHT22;31430;61.646;24.704;2023-04-23T00:05:09;-0.90;99.90
45715;DHT22;31430;61.646;24.704;2023-04-23T00:20:39;-0.70;99.90
45715;DHT22;31430;61.646;24.704;2023-04-23T00:23:05;-0.70;99.90
45715;DHT22;31430;61.646;24.704;2023-04-23T00:25:31;-0.70;99.90
45715;DHT22;31430;61.646;24.704;2023-04-23T00:27:56;-0.70;99.90
45715;DHT22;31430;61.646;24.704;2023-04-23T00:30:22;-0.60;99.90
45715;DHT22;31430;61.646;24.704;2023-04-23T00:32:48;-0.50;99.90
45715;DHT22;31430;61.646;24.704;2023-04-23T00:35:13;-0.40;99.90
45715;DHT22;31430;61.646;24.704;2023-04-23T00:37:39;-0.40;99.90
45715;DHT22;31430;61.646;24.704;2023-04-23T00:40:05;-0.40;99.90
45715;DHT22;31430;61.646;24.704;2023-04-23T00:42:32;-0.50;99.90
45715;DHT22;31430;61.646;24.704;2023-04-23T00:44:58;-0.50;99.90
45715;DHT22;31430;61.646;24.704;2023-04-23T00:47:24;-0.40;99.90
45715;DHT22;31430;61.646;24.704;2023-04-23T00:49:50;-0.40;99.90
45715;DHT22;31430;61.646;24.704;2023-04-23T00:52:17;-0.40;99.90
45715;DHT22;31430;61.646;24.704;2023-04-23T00:54:43;-0.40;99.90
45715;DHT22;31430;61.646;24.704;2023-04-23T00:57:09;-0.50;99.90
45715;DHT22;31430;61.646;24.704;2023-04-23T00:59:35;-0.40;99.90
45715;DHT22;31430;61.646;24.704;2023-04-23T01:02:01;-0.40;99.90
45715;DHT22;31430;61.646;24.704;2023-04-23T01:04:27;-0.40;99.90
45715;DHT22;31430;61.646;24.704;2023-04-23T01:06:55;-0.40;99.90
45715;DHT22;31430;61.646;24.704;2023-04-23T01:09:21;-0.50;99.90
45715;DHT22;31430;61.646;24.704;2023-04-23T01:11:48;-0.60;99.90
45715;DHT22;31430;61.646;24.704;2023-04-23T01:14:15;-0.70;99.90
45715;DHT22;31430;61.646;24.704;2023-04-23T01:16:41;-0.80;99.90
45715;DHT22;31430;61.646;24.704;2023-04-23T01:19:07;-0.80;99.90
45715;DHT22;31430;61.646;24.704;2023-04-23T01:21:34;-0.80;99.90
45715;DHT22;31430;61.646;24.704;2023-04-23T01:24:04;-0.90;99.90
45715;DHT22;31430;61.646;24.704;2023-04-23T01:26:30;-0.80;99.90
45715;DHT22;31430;61.646;24.704;2023-04-23T01:28:57;-0.90;99.90
45715;DHT22;31430;61.646;24.704;2023-04-23T01:31:23;-1.00;99.90
45715;DHT22;31430;61.646;24.704;2023-04-23T01:33:50;-1.10;99.90
45715;DHT22;31430;61.646;24.704;2023-04-23T01:36:18;-1.10;99.90
45715;DHT22;31430;61.646;24.704;2023-04-23T01:38:44;-1.10;99.90
45715;DHT22;31430;61.646;24.704;2023-04-23T01:41:09;-1.10;99.90
45715;DHT22;31430;61.646;24.704;2023-04-23T01:43:35;-1.10;99.90
45715;DHT22;31430;61.646;24.704;2023-04-23T01:46:01;-1.10;99.90
45715;DHT22;31430;61.646;24.704;2023-04-23T01:48:26;-1.20;99.90
45715;DHT22;31430;61.646;24.704;2023-04-23T01:50:53;-1.20;99.90
45715;DHT22;31430;61.646;24.704;2023-04-23T01:53:19;-1.20;99.90
45715;DHT22;31430;61.646;24.704;2023-04-23T01:55:46;-1.30;99.90
45715;DHT22;31430;61.646;24.704;2023-04-23T01:58:12;-1.40;99.90
45715;DHT22;31430;61.646;24.704;2023-04-23T02:00:38;-1.30;99.90
45715;DHT22;31430;61.646;24.704;2023-04-23T02:03:04;-1.30;99.90
45715;DHT22;31430;61.646;24.704;2023-04-23T02:05:33;-1.30;99.90
45715;DHT22;31430;61.646;24.704;2023-04-23T02:08:00;-1.50;99.90
45715;DHT22;31430;61.646;24.704;2023-04-23T02:10:25;-1.60;99.90
45715;DHT22;31430;61.646;24.704;2023-04-23T02:12:51;-1.60;99.90
45715;DHT22;31430;61.646;24.704;2023-04-23T02:15:17;-1.70;99.90
45715;DHT22;31430;61.646;24.704;2023-04-23T02:17:44;-1.80;99.90
45715;DHT22;31430;61.646;24.704;2023-04-23T02:20:10;-1.70;99.90
45715;DHT22;31430;61.646;24.704;2023-04-23T02:22:40;-1.70;99.90
45715;DHT22;31430;61.646;24.704;2023-04-23T02:25:06;-1.70;99.90
45715;DHT22;31430;61.646;24.704;2023-04-23T02:27:33;-1.70;99.90
45715;DHT22;31430;61.646;24.704;2023-04-23T02:29:58;-1.70;99.90
45715;DHT22;31430;61.646;24.704;2023-04-23T02:32:24;-1.70;99.90
45715;DHT22;31430;61.646;24.704;2023-04-23T02:34:50;-1.70;99.90
45715;DHT22;31430;61.646;24.704;2023-04-23T02:37:16;-1.60;99.90
45715;DHT22;31430;61.646;24.704;2023-04-23T02:39:42;-1.60;99.90
45715;DHT22;31430;61.646;24.704;2023-04-23T02:42:07;-1.60;99.90
45715;DHT22;31430;61.646;24.704;2023-04-23T02:44:33;-1.60;99.90
45715;DHT22;31430;61.646;24.704;2023-04-23T02:46:59;-1.70;99.90
45715;DHT22;31430;61.646;24.704;2023-04-23T02:49:25;-1.70;99.90
45715;DHT22;31430;61.646;24.704;2023-04-23T02:51:50;-1.70;99.90
45715;DHT22;31430;61.646;24.704;2023-04-23T02:54:16;-1.70;99.90
45715;DHT22;31430;61.646;24.704;2023-04-23T02:56:41;-1.70;99.90
45715;DHT22;31430;61.646;24.704;2023-04-23T02:59:07;-1.60;99.90
45715;DHT22;31430;61.646;24.704;2023-04-23T03:01:32;-1.50;99.90
45715;DHT22;31430;61.646;24.704;2023-04-23T03:03:58;-1.40;99.90
45715;DHT22;31430;61.646;24.704;2023-04-23T03:06:25;-1.40;99.90
45715;DHT22;31430;61.646;24.704;2023-04-23T03:08:51;-1.30;99.90
45715;DHT22;31430;61.646;24.704;2023-04-23T03:11:17;-1.20;99.90
45715;DHT22;31430;61.646;24.704;2023-04-23T03:13:42;-1.20;99.90
45715;DHT22;31430;61.646;24.704;2023-04-23T03:16:08;-1.30;99.90
45715;DHT22;31430;61.646;24.704;2023-04-23T03:18:34;-1.30;99.90
45715;DHT22;31430;61.646;24.704;2023-04-23T03:20:59;-1.40;99.90
45715;DHT22;31430;61.646;24.704;2023-04-23T03:23:25;-1.40;99.90
45715;DHT22;31430;61.646;24.704;2023-04-23T03:25:51;-1.30;99.90
45715;DHT22;31430;61.646;24.704;2023-04-23T03:28:16;-1.30;99.90
45715;DHT22;31430;61.646;24.704;2023-04-23T03:30:42;-1.20;99.90
45715;DHT22;31430;61.646;24.704;2023-04-23T03:33:07;-1.10;99.90
45715;DHT22;31430;61.646;24.704;2023-04-23T03:35:33;-1.00;99.90
45715;DHT22;31430;61.646;24.704;2023-04-23T03:37:59;-0.80;99.90
45715;DHT22;31430;61.646;24.704;2023-04-23T03:40:25;-0.70;99.90
45715;DHT22;31430;61.646;24.704;2023-04-23T03:42:50;-0.60;99.90
45715;DHT22;31430;61.646;24.704;2023-04-23T03:45:16;-0.50;99.90
45715;DHT22;31430;61.646;24.704;2023-04-23T03:47:41;-0.20;99.90
45715;DHT22;31430;61.646;24.704;2023-04-23T03:50:08;-0.10;99.90
45715;DHT22;31430;61.646;24.704;2023-04-23T03:52:34;0.00;99.90
45715;DHT22;31430;61.646;24.704;2023-04-23T03:55:01;0.20;99.90
45715;DHT22;31430;61.646;24.704;2023-04-23T03:57:26;0.30;99.90
45715;DHT22;31430;61.646;24.704;2023-04-23T03:59:52;0.50;99.90
45715;DHT22;31430;61.646;24.704;2023-04-23T04:02:18;0.50;99.90
45715;DHT22;31430;61.646;24.704;2023-04-23T04:04:44;0.50;99.90
45715;DHT22;31430;61.646;24.704;2023-04-23T04:07:11;0.60;99.90
45715;DHT22;31430;61.646;24.704;2023-04-23T04:09:37;0.60;99.90
45715;DHT22;31430;61.646;24.704;2023-04-23T04:12:04;0.70;99.90
45715;DHT22;31430;61.646;24.704;2023-04-23T04:14:30;0.70;99.90
45715;DHT22;31430;61.646;24.704;2023-04-23T04:16:57;0.70;99.90
45715;DHT22;31430;61.646;24.704;2023-04-23T04:19:22;0.80;99.90
45715;DHT22;31430;61.646;24.704;2023-04-23T04:21:48;0.80;99.90
45715;DHT22;31430;61.646;24.704;2023-04-23T04:24:14;0.90;99.90
45715;DHT22;31430;61.646;24.704;2023-04-23T04:26:39;1.00;99.90
45715;DHT22;31430;61.646;24.704;2023-04-23T04:29:06;1.10;99.90
45715;DHT22;31430;61.646;24.704;2023-04-23T04:31:33;1.10;99.90
45715;DHT22;31430;61.646;24.704;2023-04-23T04:34:00;1.10;99.90
45715;DHT22;31430;61.646;24.704;2023-04-23T04:36:26;1.10;99.90
45715;DHT22;31430;61.646;24.704;2023-04-23T04:38:53;1.20;99.90
45715;DHT22;31430;61.646;24.704;2023-04-23T04:41:26;1.20;99.90
45715;DHT22;31430;61.646;24.704;2023-04-23T04:43:53;1.30;99.90
45715;DHT22;31430;61.646;24.704;2023-04-23T04:46:22;1.30;99.90
45715;DHT22;31430;61.646;24.704;2023-04-23T04:48:50;1.40;99.90
45715;DHT22;31430;61.646;24.704;2023-04-23T04:51:16;1.50;99.90
45715;DHT22;31430;61.646;24.704;2023-04-23T04:53:42;1.50;99.90
45715;DHT22;31430;61.646;24.704;2023-04-23T04:56:07;1.40;99.90
45715;DHT22;31430;61.646;24.704;2023-04-23T04:58:33;1.50;99.90
45715;DHT22;31430;61.646;24.704;2023-04-23T05:00:59;1.50;99.90
45715;DHT22;31430;61.646;24.704;2023-04-23T05:03:25;1.50;99.90
45715;DHT22;31430;61.646;24.704;2023-04-23T05:05:52;1.80;99.90
45715;DHT22;31430;61.646;24.704;2023-04-23T05:08:21;1.80;99.90
45715;DHT22;31430;61.646;24.704;2023-04-23T05:10:46;1.80;99.90
45715;DHT22;31430;61.646;24.704;2023-04-23T05:13:12;1.80;99.90
45715;DHT22;31430;61.646;24.704;2023-04-23T05:15:38;1.90;99.90
45715;DHT22;31430;61.646;24.704;2023-04-23T05:18:04;2.00;99.90
45715;DHT22;31430;61.646;24.704;2023-04-23T05:20:30;2.10;99.90
45715;DHT22;31430;61.646;24.704;2023-04-23T05:22:56;2.10;99.90
45715;DHT22;31430;61.646;24.704;2023-04-23T05:25:24;2.10;99.90
45715;DHT22;31430;61.646;24.704;2023-04-23T05:27:50;2.30;99.90
45715;DHT22;31430;61.646;24.704;2023-04-23T05:30:15;2.00;99.90
45715;DHT22;31430;61.646;24.704;2023-04-23T05:32:41;2.10;99.90
45715;DHT22;31430;61.646;24.704;2023-04-23T05:35:07;2.30;99.90
45715;DHT22;31430;61.646;24.704;2023-04-23T05:37:33;2.20;99.90
45715;DHT22;31430;61.646;24.704;2023-04-23T05:39:59;2.10;99.90
45715;DHT22;31430;61.646;24.704;2023-04-23T05:42:24;2.20;99.90
45715;DHT22;31430;61.646;24.704;2023-04-23T05:44:50;2.20;99.90
45715;DHT22;31430;61.646;24.704;2023-04-23T05:47:16;2.20;99.90
45715;DHT22;31430;61.646;24.704;2023-04-23T05:49:41;2.50;99.90
45715;DHT22;31430;61.646;24.704;2023-04-23T05:52:07;2.70;99.90
45715;DHT22;31430;61.646;24.704;2023-04-23T05:54:33;2.70;99.90
45715;DHT22;31430;61.646;24.704;2023-04-23T05:56:58;2.60;99.90
45715;DHT22;31430;61.646;24.704;2023-04-23T05:59:25;2.60;99.90
45715;DHT22;31430;61.646;24.704;2023-04-23T06:01:51;2.50;99.90
45715;DHT22;31430;61.646;24.704;2023-04-23T06:04:17;2.80;99.90
45715;DHT22;31430;61.646;24.704;2023-04-23T06:06:43;2.80;99.90
45715;DHT22;31430;61.646;24.704;2023-04-23T06:09:08;2.70;99.90
45715;DHT22;31430;61.646;24.704;2023-04-23T06:11:34;3.00;99.90
45715;DHT22;31430;61.646;24.704;2023-04-23T06:14:03;2.50;99.90
45715;DHT22;31430;61.646;24.704;2023-04-23T06:16:29;2.70;99.90
45715;DHT22;31430;61.646;24.704;2023-04-23T06:18:55;2.40;99.90
45715;DHT22;31430;61.646;24.704;2023-04-23T06:21:24;2.40;99.90
45715;DHT22;31430;61.646;24.704;2023-04-23T06:23:52;2.50;99.90
45715;DHT22;31430;61.646;24.704;2023-04-23T06:26:17;2.70;99.90
45715;DHT22;31430;61.646;24.704;2023-04-23T06:28:44;2.60;99.90
45715;DHT22;31430;61.646;24.704;2023-04-23T06:31:10;2.60;99.90
45715;DHT22;31430;61.646;24.704;2023-04-23T06:33:36;2.70;99.90
45715;DHT22;31430;61.646;24.704;2023-04-23T06:36:07;2.70;99.90
45715;DHT22;31430;61.646;24.704;2023-04-23T06:38:35;2.70;99.90
45715;DHT22;31430;61.646;24.704;2023-04-23T06:41:01;2.50;99.90
45715;DHT22;31430;61.646;24.704;2023-04-23T06:43:27;2.50;99.90
45715;DHT22;31430;61.646;24.704;2023-04-23T06:45:53;2.40;99.90
45715;DHT22;31430;61.646;24.704;2023-04-23T06:48:18;2.30;99.90
45715;DHT22;31430;61.646;24.704;2023-04-23T06:50:46;2.40;99.90
45715;DHT22;31430;61.646;24.704;2023-04-23T06:53:13;2.50;99.90
45715;DHT22;31430;61.646;24.704;2023-04-23T06:55:38;2.50;99.90
45715;DHT22;31430;61.646;24.704;2023-04-23T06:58:04;2.50;99.90
45715;DHT22;31430;61.646;24.704;2023-04-23T07:00:32;2.80;99.90
45715;DHT22;31430;61.646;24.704;2023-04-23T07:02:58;3.00;99.90
45715;DHT22;31430;61.646;24.704;2023-04-23T07:05:23;3.10;99.90
45715;DHT22;31430;61.646;24.704;2023-04-23T07:07:49;3.20;99.90
45715;DHT22;31430;61.646;24.704;2023-04-23T07:10:15;3.50;99.90
45715;DHT22;31430;61.646;24.704;2023-04-23T07:12:41;3.30;99.90
45715;DHT22;31430;61.646;24.704;2023-04-23T07:15:07;3.50;99.90
45715;DHT22;31430;61.646;24.704;2023-04-23T07:17:33;3.60;99.90
45715;DHT22;31430;61.646;24.704;2023-04-23T07:19:59;3.60;99.90
45715;DHT22;31430;61.646;24.704;2023-04-23T07:22:25;3.60;99.90
45715;DHT22;31430;61.646;24.704;2023-04-23T07:24:51;3.80;99.90
45715;DHT22;31430;61.646;24.704;2023-04-23T07:27:17;3.80;99.90
45715;DHT22;31430;61.646;24.704;2023-04-23T07:29:43;3.70;99.90
45715;DHT22;31430;61.646;24.704;2023-04-23T07:32:09;3.80;99.90
45715;DHT22;31430;61.646;24.704;2023-04-23T07:34:35;4.10;99.90
45715;DHT22;31430;61.646;24.704;2023-04-23T07:37:01;4.20;99.90
45715;DHT22;31430;61.646;24.704;2023-04-23T07:39:27;4.30;99.90
45715;DHT22;31430;61.646;24.704;2023-04-23T07:41:53;4.40;99.90
45715;DHT22;31430;61.646;24.704;2023-04-23T07:44:19;4.50;99.90
45715;DHT22;31430;61.646;24.704;2023-04-23T07:46:45;4.70;99.90
45715;DHT22;31430;61.646;24.704;2023-04-23T07:49:10;4.90;99.90
45715;DHT22;31430;61.646;24.704;2023-04-23T07:51:36;5.10;99.90
45715;DHT22;31430;61.646;24.704;2023-04-23T07:54:02;4.60;99.90
45715;DHT22;31430;61.646;24.704;2023-04-23T07:56:28;4.50;99.90
45715;DHT22;31430;61.646;24.704;2023-04-23T07:58:57;4.80;99.90
45715;DHT22;31430;61.646;24.704;2023-04-23T08:01:22;5.30;99.90
45715;DHT22;31430;61.646;24.704;2023-04-23T08:03:48;5.90;99.90
45715;DHT22;31430;61.646;24.704;2023-04-23T08:06:14;6.00;99.90
45715;DHT22;31430;61.646;24.704;2023-04-23T08:08:40;6.00;99.90
45715;DHT22;31430;61.646;24.704;2023-04-23T08:11:06;6.40;98.10
45715;DHT22;31430;61.646;24.704;2023-04-23T08:13:32;6.20;99.90
45715;DHT22;31430;61.646;24.704;2023-04-23T08:15:58;6.20;99.90
45715;DHT22;31430;61.646;24.704;2023-04-23T08:18:23;5.50;99.90
45715;DHT22;31430;61.646;24.704;2023-04-23T08:20:50;5.40;99.90
45715;DHT22;31430;61.646;24.704;2023-04-23T08:23:16;5.50;99.90
45715;DHT22;31430;61.646;24.704;2023-04-23T08:25:42;5.40;99.90
45715;DHT22;31430;61.646;24.704;2023-04-23T08:28:07;5.60;99.90
45715;DHT22;31430;61.646;24.704;2023-04-23T08:30:33;6.00;99.90
45715;DHT22;31430;61.646;24.704;2023-04-23T08:32:59;6.00;99.90
45715;DHT22;31430;61.646;24.704;2023-04-23T08:35:24;5.80;99.90
45715;DHT22;31430;61.646;24.704;2023-04-23T08:37:50;6.10;99.90
45715;DHT22;31430;61.646;24.704;2023-04-23T08:40:16;6.30;99.90
45715;DHT22;31430;61.646;24.704;2023-04-23T08:42:57;6.50;99.50
45715;DHT22;31430;61.646;24.704;2023-04-23T08:45:23;6.10;99.10
45715;DHT22;31430;61.646;24.704;2023-04-23T08:47:49;6.00;99.80
45715;DHT22;31430;61.646;24.704;2023-04-23T08:50:17;6.10;99.90
45715;DHT22;31430;61.646;24.704;2023-04-23T08:52:54;6.30;99.90
45715;DHT22;31430;61.646;24.704;2023-04-23T08:55:21;6.30;97.80
45715;DHT22;31430;61.646;24.704;2023-04-23T08:57:48;6.30;99.70
45715;DHT22;31430;61.646;24.704;2023-04-23T09:00:16;6.70;99.60
45715;DHT22;31430;61.646;24.704;2023-04-23T09:02:44;6.70;99.30
45715;DHT22;31430;61.646;24.704;2023-04-23T09:05:10;6.20;99.90
45715;DHT22;31430;61.646;24.704;2023-04-23T09:07:37;6.50;99.90
45715;DHT22;31430;61.646;24.704;2023-04-23T09:10:03;7.10;99.90
45715;DHT22;31430;61.646;24.704;2023-04-23T09:12:29;8.00;93.60
45715;DHT22;31430;61.646;24.704;2023-04-23T09:14:55;7.90;90.80
45715;DHT22;31430;61.646;24.704;2023-04-23T09:17:22;8.30;87.30
45715;DHT22;31430;61.646;24.704;2023-04-23T09:19:52;7.10;91.70
45715;DHT22;31430;61.646;24.704;2023-04-23T09:22:47;7.10;94.10
45715;DHT22;31430;61.646;24.704;2023-04-23T09:25:17;8.00;91.20
45715;DHT22;31430;61.646;24.704;2023-04-23T09:27:43;7.50;91.00
45715;DHT22;31430;61.646;24.704;2023-04-23T09:30:10;7.50;92.40
45715;DHT22;31430;61.646;24.704;2023-04-23T09:32:38;7.40;93.40
45715;DHT22;31430;61.646;24.704;2023-04-23T09:35:06;8.00;91.20
45715;DHT22;31430;61.646;24.704;2023-04-23T09:37:32;7.60;91.50
45715;DHT22;31430;61.646;24.704;2023-04-23T09:39:59;7.70;90.70
45715;DHT22;31430;61.646;24.704;2023-04-23T09:42:29;7.60;91.40
45715;DHT22;31430;61.646;24.704;2023-04-23T09:45:21;7.70;90.20
45715;DHT22;31430;61.646;24.704;2023-04-23T09:47:49;8.00;91.40
45715;DHT22;31430;61.646;24.704;2023-04-23T09:50:15;8.40;89.60
45715;DHT22;31430;61.646;24.704;2023-04-23T09:52:41;8.30;88.00
45715;DHT22;31430;61.646;24.704;2023-04-23T09:55:07;7.90;90.10
45715;DHT22;31430;61.646;24.704;2023-04-23T09:57:37;8.30;90.90
45715;DHT22;31430;61.646;24.704;2023-04-23T10:00:14;8.30;87.90
45715;DHT22;31430;61.646;24.704;2023-04-23T10:02:47;8.80;86.70
45715;DHT22;31430;61.646;24.704;2023-04-23T10:05:18;9.40;84.90
45715;DHT22;31430;61.646;24.704;2023-04-23T10:07:45;10.20;81.60
45715;DHT22;31430;61.646;24.704;2023-04-23T10:10:20;10.70;75.00
45715;DHT22;31430;61.646;24.704;2023-04-23T10:12:46;10.90;75.20
45715;DHT22;31430;61.646;24.704;2023-04-23T10:15:13;10.90;72.80
45715;DHT22;31430;61.646;24.704;2023-04-23T10:17:39;11.00;74.60
45715;DHT22;31430;61.646;24.704;2023-04-23T10:20:06;10.80;73.00
45715;DHT22;31430;61.646;24.704;2023-04-23T10:22:34;10.10;74.50
45715;DHT22;31430;61.646;24.704;2023-04-23T10:25:04;9.60;78.80
45715;DHT22;31430;61.646;24.704;2023-04-23T10:27:35;9.90;79.30
45715;DHT22;31430;61.646;24.704;2023-04-23T10:30:02;10.40;75.40
45715;DHT22;31430;61.646;24.704;2023-04-23T10:32:30;10.60;73.80
45715;DHT22;31430;61.646;24.704;2023-04-23T10:34:57;11.10;73.10
45715;DHT22;31430;61.646;24.704;2023-04-23T10:37:23;10.40;75.60
45715;DHT22;31430;61.646;24.704;2023-04-23T10:39:53;11.20;74.10
45715;DHT22;31430;61.646;24.704;2023-04-23T10:42:20;10.70;74.90
45715;DHT22;31430;61.646;24.704;2023-04-23T10:44:46;10.20;75.40
45715;DHT22;31430;61.646;24.704;2023-04-23T10:47:15;10.40;75.10
45715;DHT22;31430;61.646;24.704;2023-04-23T10:49:42;10.00;76.40
45715;DHT22;31430;61.646;24.704;2023-04-23T10:52:14;9.80;77.50
45715;DHT22;31430;61.646;24.704;2023-04-23T10:54:47;10.50;76.10
45715;DHT22;31430;61.646;24.704;2023-04-23T10:57:13;10.80;73.80
45715;DHT22;31430;61.646;24.704;2023-04-23T10:59:53;10.40;74.20
45715;DHT22;31430;61.646;24.704;2023-04-23T11:02:22;10.40;76.20
45715;DHT22;31430;61.646;24.704;2023-04-23T11:04:56;10.90;74.00
45715;DHT22;31430;61.646;24.704;2023-04-23T11:07:32;11.20;73.50
45715;DHT22;31430;61.646;24.704;2023-04-23T11:09:59;11.80;70.50
45715;DHT22;31430;61.646;24.704;2023-04-23T11:14:55;11.50;70.30
45715;DHT22;31430;61.646;24.704;2023-04-23T11:22:42;11.20;72.90
45715;DHT22;31430;61.646;24.704;2023-04-23T11:25:10;11.70;71.00
45715;DHT22;31430;61.646;24.704;2023-04-23T11:27:41;11.60;71.60
45715;DHT22;31430;61.646;24.704;2023-04-23T11:30:18;11.40;71.30
45715;DHT22;31430;61.646;24.704;2023-04-23T11:32:46;11.60;71.40
45715;DHT22;31430;61.646;24.704;2023-04-23T11:35:14;12.10;70.40
45715;DHT22;31430;61.646;24.704;2023-04-23T11:37:41;11.90;71.00
45715;DHT22;31430;61.646;24.704;2023-04-23T11:40:08;11.90;70.20
45715;DHT22;31430;61.646;24.704;2023-04-23T11:42:51;12.40;71.00
45715;DHT22;31430;61.646;24.704;2023-04-23T11:45:26;12.20;69.80
45715;DHT22;31430;61.646;24.704;2023-04-23T11:47:55;12.50;70.00
45715;DHT22;31430;61.646;24.704;2023-04-23T11:50:28;12.80;67.60
45715;DHT22;31430;61.646;24.704;2023-04-23T11:53:04;13.10;66.90
45715;DHT22;31430;61.646;24.704;2023-04-23T11:55:31;12.50;66.80
45715;DHT22;31430;61.646;24.704;2023-04-23T11:57:57;12.70;67.80
45715;DHT22;31430;61.646;24.704;2023-04-23T12:00:24;12.40;67.30
45715;DHT22;31430;61.646;24.704;2023-04-23T12:02:54;12.00;69.20
45715;DHT22;31430;61.646;24.704;2023-04-23T12:10:44;12.80;68.20
45715;DHT22;31430;61.646;24.704;2023-04-23T12:13:14;12.40;69.00
45715;DHT22;31430;61.646;24.704;2023-04-23T12:15:49;12.40;69.00
45715;DHT22;31430;61.646;24.704;2023-04-23T12:18:15;12.30;69.50
45715;DHT22;31430;61.646;24.704;2023-04-23T12:20:42;12.90;67.60
45715;DHT22;31430;61.646;24.704;2023-04-23T12:23:08;12.60;67.60
45715;DHT22;31430;61.646;24.704;2023-04-23T12:25:34;12.10;68.90
45715;DHT22;31430;61.646;24.704;2023-04-23T12:28:01;12.40;67.60
45715;DHT22;31430;61.646;24.704;2023-04-23T12:30:33;12.50;69.60
45715;DHT22;31430;61.646;24.704;2023-04-23T12:33:02;12.70;69.60
45715;DHT22;31430;61.646;24.704;2023-04-23T12:35:48;12.40;68.30
45715;DHT22;31430;61.646;24.704;2023-04-23T12:38:25;12.90;67.80
45715;DHT22;31430;61.646;24.704;2023-04-23T12:40:57;12.90;68.60
45715;DHT22;31430;61.646;24.704;2023-04-23T12:43:24;12.80;68.20
45715;DHT22;31430;61.646;24.704;2023-04-23T12:45:50;13.40;66.80
45715;DHT22;31430;61.646;24.704;2023-04-23T12:48:17;13.70;65.20
45715;DHT22;31430;61.646;24.704;2023-04-23T12:50:44;13.80;65.40
45715;DHT22;31430;61.646;24.704;2023-04-23T12:53:10;13.90;64.60
45715;DHT22;31430;61.646;24.704;2023-04-23T12:55:36;13.60;66.10
45715;DHT22;31430;61.646;24.704;2023-04-23T12:58:04;13.50;65.20
45715;DHT22;31430;61.646;24.704;2023-04-23T13:00:29;13.00;66.90
45715;DHT22;31430;61.646;24.704;2023-04-23T13:02:55;13.20;66.30
45715;DHT22;31430;61.646;24.704;2023-04-23T13:05:22;13.90;64.90
45715;DHT22;31430;61.646;24.704;2023-04-23T13:07:48;14.00;65.10
45715;DHT22;31430;61.646;24.704;2023-04-23T13:10:14;13.90;66.20
45715;DHT22;31430;61.646;24.704;2023-04-23T13:12:39;13.70;65.40
45715;DHT22;31430;61.646;24.704;2023-04-23T13:15:07;13.60;66.20
45715;DHT22;31430;61.646;24.704;2023-04-23T13:17:36;13.40;66.50
45715;DHT22;31430;61.646;24.704;2023-04-23T13:20:02;14.00;65.20
45715;DHT22;31430;61.646;24.704;2023-04-23T13:22:29;13.40;66.80
45715;DHT22;31430;61.646;24.704;2023-04-23T13:24:56;13.40;67.20
45715;DHT22;31430;61.646;24.704;2023-04-23T13:27:23;13.70;65.10
45715;DHT22;31430;61.646;24.704;2023-04-23T13:29:48;13.80;65.40
45715;DHT22;31430;61.646;24.704;2023-04-23T13:32:14;14.00;64.70
45715;DHT22;31430;61.646;24.704;2023-04-23T13:34:41;13.90;64.10
45715;DHT22;31430;61.646;24.704;2023-04-23T13:37:07;13.50;65.90
45715;DHT22;31430;61.646;24.704;2023-04-23T13:39:35;13.90;64.90
45715;DHT22;31430;61.646;24.704;2023-04-23T13:42:01;13.90;65.80
45715;DHT22;31430;61.646;24.704;2023-04-23T13:44:29;13.70;66.00
45715;DHT22;31430;61.646;24.704;2023-04-23T13:46:55;13.90;64.30
45715;DHT22;31430;61.646;24.704;2023-04-23T13:49:25;13.80;65.00
45715;DHT22;31430;61.646;24.704;2023-04-23T13:51:53;13.90;65.30
45715;DHT22;31430;61.646;24.704;2023-04-23T13:54:23;14.00;64.90
45715;DHT22;31430;61.646;24.704;2023-04-23T13:56:49;13.40;66.00
45715;DHT22;31430;61.646;24.704;2023-04-23T13:59:15;13.10;67.30
45715;DHT22;31430;61.646;24.704;2023-04-23T14:01:40;13.20;67.90
45715;DHT22;31430;61.646;24.704;2023-04-23T14:04:06;13.10;67.20
45715;DHT22;31430;61.646;24.704;2023-04-23T14:06:31;13.10;67.90
45715;DHT22;31430;61.646;24.704;2023-04-23T14:08:57;13.40;67.30
45715;DHT22;31430;61.646;24.704;2023-04-23T14:11:23;13.20;68.00
45715;DHT22;31430;61.646;24.704;2023-04-23T14:13:48;13.10;68.80
45715;DHT22;31430;61.646;24.704;2023-04-23T14:16:14;13.50;67.90
45715;DHT22;31430;61.646;24.704;2023-04-23T14:18:41;13.80;65.90
45715;DHT22;31430;61.646;24.704;2023-04-23T14:21:06;13.50;67.70
45715;DHT22;31430;61.646;24.704;2023-04-23T14:23:44;13.80;67.60
45715;DHT22;31430;61.646;24.704;2023-04-23T14:26:32;13.90;66.00
45715;DHT22;31430;61.646;24.704;2023-04-23T14:29:39;13.80;66.20
45715;DHT22;31430;61.646;24.704;2023-04-23T14:31:56;14.00;65.30
45715;DHT22;31430;61.646;24.704;2023-04-23T14:34:22;14.10;65.60
45715;DHT22;31430;61.646;24.704;2023-04-23T14:36:48;13.60;67.60
45715;DHT22;31430;61.646;24.704;2023-04-23T14:39:14;13.60;67.30
45715;DHT22;31430;61.646;24.704;2023-04-23T14:41:40;13.90;66.00
45715;DHT22;31430;61.646;24.704;2023-04-23T14:44:06;13.90;66.60
45715;DHT22;31430;61.646;24.704;2023-04-23T14:46:31;13.80;67.50
45715;DHT22;31430;61.646;24.704;2023-04-23T14:48:57;13.30;69.20
45715;DHT22;31430;61.646;24.704;2023-04-23T14:51:23;13.00;68.70
45715;DHT22;31430;61.646;24.704;2023-04-23T14:53:50;13.10;70.20
45715;DHT22;31430;61.646;24.704;2023-04-23T14:56:16;13.30;68.30
45715;DHT22;31430;61.646;24.704;2023-04-23T14:58:41;13.40;68.10
45715;DHT22;31430;61.646;24.704;2023-04-23T15:01:07;13.50;68.30
45715;DHT22;31430;61.646;24.704;2023-04-23T15:03:34;13.60;67.80
45715;DHT22;31430;61.646;24.704;2023-04-23T15:06:00;13.60;67.70
45715;DHT22;31430;61.646;24.704;2023-04-23T15:08:26;13.60;68.20
45715;DHT22;31430;61.646;24.704;2023-04-23T15:10:52;13.70;68.20
45715;DHT22;31430;61.646;24.704;2023-04-23T15:13:38;13.40;67.90
45715;DHT22;31430;61.646;24.704;2023-04-23T15:16:27;12.80;71.90
45715;DHT22;31430;61.646;24.704;2023-04-23T15:18:56;13.00;70.90
45715;DHT22;31430;61.646;24.704;2023-04-23T15:21:22;13.10;70.90
45715;DHT22;31430;61.646;24.704;2023-04-23T15:23:48;12.90;71.70
45715;DHT22;31430;61.646;24.704;2023-04-23T15:26:13;12.80;71.30
45715;DHT22;31430;61.646;24.704;2023-04-23T15:28:39;12.80;71.90
45715;DHT22;31430;61.646;24.704;2023-04-23T15:31:05;12.70;73.00
45715;DHT22;31430;61.646;24.704;2023-04-23T15:33:31;12.80;71.30
45715;DHT22;31430;61.646;24.704;2023-04-23T15:35:56;12.60;72.50
45715;DHT22;31430;61.646;24.704;2023-04-23T15:38:22;12.70;72.20
45715;DHT22;31430;61.646;24.704;2023-04-23T15:40:48;12.90;71.90
45715;DHT22;31430;61.646;24.704;2023-04-23T15:43:16;13.00;72.30
45715;DHT22;31430;61.646;24.704;2023-04-23T15:45:42;13.10;71.90
45715;DHT22;31430;61.646;24.704;2023-04-23T15:48:12;13.00;71.30